createdAt,value
2019-04-25T00:01:58.709Z,15.36
2019-04-25T00:04:32.346Z,15.26
2019-04-25T00:07:03.106Z,15.10
2019-04-25T00:09:35.571Z,15.00
2019-04-25T00:12:07.107Z,14.97
2019-04-25T00:14:38.119Z,14.86
2019-04-25T00:17:09.172Z,14.86
2019-04-25T00:19:41.790Z,14.79
2019-04-25T00:22:14.055Z,14.72
2019-04-25T00:24:49.520Z,14.78
2019-04-25T00:27:21.614Z,14.75
2019-04-25T00:29:57.661Z,14.66
2019-04-25T00:32:28.250Z,14.75
2019-04-25T00:35:01.903Z,14.66
2019-04-25T00:37:32.796Z,14.59
2019-04-25T00:40:03.994Z,14.58
2019-04-25T00:42:38.938Z,14.42
2019-04-25T00:45:09.600Z,14.69
2019-04-25T00:47:42.442Z,14.39
2019-04-25T00:50:12.667Z,14.45
2019-04-25T00:52:43.907Z,14.48
2019-04-25T00:55:26.057Z,14.60
2019-04-25T00:57:49.563Z,14.29
2019-04-25T01:00:38.117Z,14.41
2019-04-25T01:03:11.528Z,14.37
2019-04-25T01:05:44.351Z,14.14
2019-04-25T01:08:15.470Z,14.20
2019-04-25T01:10:48.718Z,14.13
2019-04-25T01:13:19.303Z,13.89
2019-04-25T01:15:52.194Z,13.90
2019-04-25T01:18:23.221Z,13.76
2019-04-25T01:20:55.415Z,13.96
2019-04-25T01:23:26.154Z,14.00
2019-04-25T01:25:56.847Z,13.92
2019-04-25T01:28:27.670Z,13.79
2019-04-25T01:30:59.075Z,13.85
2019-04-25T01:33:29.761Z,13.88
2019-04-25T01:36:03.556Z,13.81
2019-04-25T01:38:38.895Z,13.92
2019-04-25T01:41:11.112Z,13.82
2019-04-25T01:43:57.199Z,13.82
2019-04-25T01:46:26.366Z,13.77
2019-04-25T01:48:58.719Z,13.80
2019-04-25T01:51:33.893Z,13.68
2019-04-25T01:54:04.613Z,13.87
2019-04-25T01:56:35.370Z,13.77
2019-04-25T01:59:06.379Z,13.71
2019-04-25T02:01:38.438Z,13.60
2019-04-25T02:04:09.180Z,13.75
2019-04-25T02:06:41.015Z,13.81
2019-04-25T02:09:13.659Z,13.86
2019-04-25T02:11:45.979Z,13.81
2019-04-25T02:14:16.847Z,13.66
2019-04-25T02:16:50.538Z,13.63
2019-04-25T02:19:21.584Z,13.48
2019-04-25T02:21:54.498Z,13.45
2019-04-25T02:24:24.670Z,13.34
2019-04-25T02:26:57.262Z,13.30
2019-04-25T02:29:27.967Z,13.32
2019-04-25T02:32:02.164Z,13.29
2019-04-25T02:34:31.101Z,13.21
2019-04-25T02:37:05.598Z,13.17
2019-04-25T02:39:37.239Z,13.18
2019-04-25T02:42:08.627Z,13.18
2019-04-25T02:44:41.247Z,13.02
2019-04-25T02:47:16.338Z,12.97
2019-04-25T02:50:09.073Z,12.91
2019-04-25T02:52:39.559Z,12.97
2019-04-25T02:55:11.093Z,12.94
2019-04-25T02:57:44.729Z,12.99
2019-04-25T03:00:45.473Z,12.91
2019-04-25T03:03:01.210Z,12.90
2019-04-25T03:05:32.029Z,12.90
2019-04-25T03:08:07.943Z,12.90
2019-04-25T03:10:35.227Z,12.92
2019-04-25T03:13:12.020Z,12.90
2019-04-25T03:15:45.190Z,12.97
2019-04-25T03:18:17.092Z,13.00
2019-04-25T03:20:49.250Z,13.04
2019-04-25T03:23:35.405Z,13.08
2019-04-25T03:26:07.406Z,13.18
2019-04-25T03:28:38.221Z,13.16
2019-04-25T03:31:15.187Z,13.15
2019-04-25T03:33:41.271Z,13.18
2019-04-25T03:36:14.252Z,13.23
2019-04-25T03:38:44.343Z,13.31
2019-04-25T03:41:15.451Z,13.51
2019-04-25T03:43:46.083Z,13.85
2019-04-25T03:46:16.714Z,14.32
2019-04-25T03:48:47.545Z,14.82
2019-04-25T03:51:18.278Z,14.93
2019-04-25T03:53:49.035Z,15.46
2019-04-25T03:56:19.955Z,15.53
2019-04-25T03:58:54.051Z,15.98
2019-04-25T04:01:25.630Z,16.25
2019-04-25T04:03:59.000Z,16.13
2019-04-25T04:06:29.684Z,16.96
2019-04-25T04:09:04.663Z,16.80
2019-04-25T04:11:39.130Z,16.83
2019-04-25T04:14:18.043Z,17.65
2019-04-25T04:17:06.478Z,17.30
2019-04-25T04:19:39.312Z,17.35
2019-04-25T04:22:21.457Z,17.88
2019-04-25T04:24:57.354Z,17.73
2019-04-25T04:27:27.969Z,17.70
2019-04-25T04:30:01.808Z,17.21
2019-04-25T04:32:34.774Z,17.04
2019-04-25T04:35:07.309Z,17.92
2019-04-25T04:37:39.511Z,17.68
2019-04-25T04:40:10.207Z,18.02
2019-04-25T04:42:40.810Z,18.40
2019-04-25T04:45:12.405Z,18.35
2019-04-25T04:47:43.845Z,18.83
2019-04-25T04:50:15.405Z,19.44
2019-04-25T04:52:46.275Z,19.08
2019-04-25T04:55:19.759Z,18.74
2019-04-25T04:57:50.594Z,18.64
2019-04-25T05:00:24.652Z,18.60
2019-04-25T05:02:57.012Z,18.90
2019-04-25T05:05:35.645Z,18.66
2019-04-25T05:08:08.628Z,19.57
2019-04-25T05:10:39.694Z,18.88
2019-04-25T05:13:15.761Z,19.21
2019-04-25T05:15:50.628Z,19.33
2019-04-25T05:18:34.556Z,19.53
2019-04-25T05:20:57.593Z,19.58
2019-04-25T05:23:28.506Z,19.04
2019-04-25T05:25:59.206Z,19.41
2019-04-25T05:28:33.344Z,19.32
2019-04-25T05:31:09.957Z,19.96
2019-04-25T05:33:40.578Z,19.03
2019-04-25T05:36:11.636Z,19.32
2019-04-25T05:38:45.895Z,19.66
2019-04-25T05:41:21.003Z,19.73
2019-04-25T05:43:51.795Z,19.84
2019-04-25T05:46:23.700Z,19.87
2019-04-25T05:48:56.367Z,19.54
2019-04-25T05:51:26.925Z,19.46
2019-04-25T05:53:57.631Z,19.10
2019-04-25T05:56:28.333Z,20.01
2019-04-25T05:58:59.149Z,19.82
2019-04-25T06:01:31.608Z,19.89
2019-04-25T06:04:05.166Z,19.70
2019-04-25T06:06:36.769Z,19.88
2019-04-25T06:09:28.204Z,20.47
2019-04-25T06:12:15.768Z,20.23
2019-04-25T06:14:48.026Z,20.68
2019-04-25T06:17:38.620Z,20.64
2019-04-25T06:20:13.602Z,20.22
2019-04-25T06:22:48.812Z,20.80
2019-04-25T06:25:24.085Z,20.57
2019-04-25T06:27:57.233Z,21.14
2019-04-25T06:30:30.494Z,21.03
2019-04-25T06:33:01.387Z,20.89
2019-04-25T06:35:35.851Z,20.09
2019-04-25T06:38:06.829Z,20.02
2019-04-25T06:40:37.568Z,19.59
2019-04-25T06:43:08.268Z,19.40
2019-04-25T06:45:56.628Z,19.13
2019-04-25T06:48:35.200Z,19.39
2019-04-25T06:51:08.916Z,19.45
2019-04-25T06:53:39.635Z,19.67
2019-04-25T06:56:10.236Z,19.89
2019-04-25T06:58:40.952Z,20.13
2019-04-25T07:01:13.475Z,20.10
2019-04-25T07:03:44.509Z,20.31
2019-04-25T07:06:15.192Z,20.41
2019-04-25T07:08:45.941Z,20.45
2019-04-25T07:11:16.668Z,20.63
2019-04-25T07:13:47.391Z,20.21
2019-04-25T07:16:18.065Z,20.61
2019-04-25T07:18:48.784Z,20.28
2019-04-25T07:21:19.414Z,20.35
2019-04-25T07:23:50.207Z,20.36
2019-04-25T07:26:45.240Z,20.30
2019-04-25T07:29:24.825Z,20.29
2019-04-25T07:32:12.162Z,20.40
2019-04-25T07:34:44.324Z,20.53
2019-04-25T07:37:16.777Z,20.69
2019-04-25T07:39:47.368Z,20.61
2019-04-25T07:42:19.646Z,20.48
2019-04-25T07:44:53.440Z,20.82
2019-04-25T07:47:24.756Z,20.86
2019-04-25T07:49:55.602Z,20.89
2019-04-25T07:52:27.074Z,20.84
2019-04-25T07:54:57.857Z,21.01
2019-04-25T07:57:29.149Z,20.97
2019-04-25T07:59:59.948Z,21.33
2019-04-25T08:02:30.632Z,21.34
2019-04-25T08:05:04.269Z,21.08
2019-04-25T08:07:36.032Z,21.18
2019-04-25T08:10:09.220Z,21.29
2019-04-25T08:12:40.475Z,21.20
2019-04-25T08:15:15.653Z,21.40
2019-04-25T08:17:56.645Z,21.51
2019-04-25T08:20:28.427Z,21.57
2019-04-25T08:23:01.929Z,21.87
2019-04-25T08:25:33.457Z,21.47
2019-04-25T08:28:05.133Z,21.79
2019-04-25T08:30:36.757Z,21.97
2019-04-25T08:33:08.191Z,21.85
2019-04-25T08:35:42.570Z,21.89
2019-04-25T08:38:13.995Z,21.73
2019-04-25T08:40:44.727Z,21.81
2019-04-25T08:43:15.351Z,21.94
2019-04-25T08:45:46.079Z,21.76
2019-04-25T08:48:19.408Z,21.97
2019-04-25T08:51:08.990Z,21.93
2019-04-25T08:53:47.140Z,22.19
2019-04-25T08:56:22.097Z,22.02
2019-04-25T08:59:05.481Z,22.13
2019-04-25T09:01:48.905Z,22.29
2019-04-25T09:04:21.273Z,22.33
2019-04-25T09:06:54.990Z,22.26
2019-04-25T09:09:25.740Z,22.21
2019-04-25T09:11:56.597Z,22.29
2019-04-25T09:14:27.534Z,22.41
2019-04-25T09:16:59.606Z,22.38
2019-04-25T09:19:36.202Z,22.44
2019-04-25T09:22:07.571Z,22.47
2019-04-25T09:24:45.371Z,22.62
2019-04-25T09:27:16.162Z,22.56
2019-04-25T09:29:47.557Z,22.68
2019-04-25T09:32:18.310Z,22.53
2019-04-25T09:34:48.955Z,22.68
2019-04-25T09:37:21.668Z,22.59
2019-04-25T09:40:04.215Z,22.55
2019-04-25T09:42:36.996Z,22.61
2019-04-25T09:45:17.052Z,22.75
2019-04-25T09:47:49.431Z,22.63
2019-04-25T09:50:40.035Z,22.76
2019-04-25T09:53:21.885Z,22.76
2019-04-25T09:55:48.298Z,22.93
2019-04-25T09:58:29.647Z,22.99
2019-04-25T10:01:02.098Z,22.90
2019-04-25T10:03:33.402Z,22.82
2019-04-25T10:06:04.389Z,22.70
2019-04-25T10:08:34.977Z,22.70
2019-04-25T10:11:06.368Z,22.86
2019-04-25T10:13:37.594Z,22.88
2019-04-25T10:16:13.093Z,23.07
2019-04-25T10:18:44.710Z,22.93
2019-04-25T10:21:16.387Z,22.95
2019-04-25T10:23:47.031Z,22.99
2019-04-25T10:26:19.615Z,22.87
2019-04-25T10:28:50.451Z,23.02
2019-04-25T10:31:21.074Z,23.14
2019-04-25T10:33:53.469Z,23.05
2019-04-25T10:36:24.715Z,23.13
2019-04-25T10:39:07.671Z,22.97
2019-04-25T10:41:27.821Z,23.08
2019-04-25T10:43:58.458Z,22.97
2019-04-25T10:46:29.727Z,23.02
2019-04-25T10:49:00.462Z,23.10
2019-04-25T10:51:31.079Z,23.10
2019-04-25T10:54:01.804Z,23.13
2019-04-25T10:56:33.514Z,23.19
2019-04-25T10:59:04.594Z,23.13
2019-04-25T11:01:35.662Z,23.15
2019-04-25T11:04:08.607Z,23.22
2019-04-25T11:06:39.260Z,23.25
2019-04-25T11:09:13.800Z,23.32
2019-04-25T11:11:44.426Z,23.32
2019-04-25T11:14:15.174Z,23.21
2019-04-25T11:16:46.676Z,23.42
2019-04-25T11:19:17.648Z,23.42
2019-04-25T11:21:48.327Z,23.48
2019-04-25T11:24:18.980Z,23.55
2019-04-25T11:26:51.440Z,23.52
2019-04-25T11:29:23.964Z,23.32
2019-04-25T11:31:55.066Z,23.40
2019-04-25T11:34:26.013Z,23.50
2019-04-25T11:36:57.670Z,23.39
2019-04-25T11:39:33.031Z,23.44
2019-04-25T11:42:04.451Z,23.43
2019-04-25T11:44:35.219Z,23.28
2019-04-25T11:47:07.583Z,23.34
2019-04-25T11:49:38.482Z,23.34
2019-04-25T11:52:10.343Z,23.33
2019-04-25T11:54:41.144Z,23.37
2019-04-25T11:57:11.744Z,23.17
2019-04-25T11:59:44.597Z,23.23
2019-04-25T12:02:14.824Z,23.44
2019-04-25T12:04:47.748Z,23.38
2019-04-25T12:07:18.543Z,23.38
2019-04-25T12:09:49.960Z,23.39
2019-04-25T12:12:20.835Z,23.19
2019-04-25T12:14:54.993Z,23.30
2019-04-25T12:17:27.064Z,23.46
2019-04-25T12:19:57.845Z,23.51
2019-04-25T12:22:28.486Z,23.38
2019-04-25T12:25:00.588Z,23.27
2019-04-25T12:27:31.164Z,23.32
2019-04-25T12:30:03.838Z,23.49
2019-04-25T12:32:35.286Z,23.62
2019-04-25T12:35:07.317Z,23.57
2019-04-25T12:37:37.947Z,23.61
2019-04-25T12:40:10.591Z,23.68
2019-04-25T12:42:41.334Z,23.64
2019-04-25T12:45:20.965Z,23.51
2019-04-25T12:47:59.435Z,23.44
2019-04-25T12:50:30.229Z,23.38
2019-04-25T12:53:00.961Z,23.38
2019-04-25T12:55:31.690Z,23.55
2019-04-25T12:58:03.507Z,23.57
2019-04-25T13:00:47.873Z,23.52
2019-04-25T13:03:14.705Z,23.67
2019-04-25T13:05:45.295Z,23.73
2019-04-25T13:08:20.264Z,23.81
2019-04-25T13:10:50.933Z,23.87
2019-04-25T13:13:24.713Z,23.78
2019-04-25T13:15:56.748Z,23.84
2019-04-25T13:18:30.353Z,23.90
2019-04-25T13:21:03.764Z,23.88
2019-04-25T13:23:36.199Z,23.91
2019-04-25T13:26:07.250Z,23.89
2019-04-25T13:28:57.711Z,24.14
2019-04-25T13:31:49.964Z,24.15
2019-04-25T13:34:35.211Z,24.34
2019-04-25T13:36:54.691Z,24.25
2019-04-25T13:39:26.510Z,24.17
2019-04-25T13:41:59.607Z,24.11
2019-04-25T13:44:30.538Z,24.06
2019-04-25T13:47:04.083Z,23.97
2019-04-25T13:49:34.992Z,23.81
2019-04-25T13:52:09.083Z,23.82
2019-04-25T13:54:39.767Z,23.61
2019-04-25T13:57:10.459Z,23.68
2019-04-25T13:59:45.875Z,23.67
2019-04-25T14:02:16.893Z,23.43
2019-04-25T14:04:50.316Z,23.48
2019-04-25T14:07:21.847Z,23.35
2019-04-25T14:09:53.223Z,23.29
2019-04-25T14:12:26.850Z,23.31
2019-04-25T14:14:59.403Z,23.21
2019-04-25T14:17:38.197Z,23.18
2019-04-25T14:20:24.871Z,23.06
2019-04-25T14:22:55.543Z,23.03
2019-04-25T14:25:27.658Z,23.06
2019-04-25T14:28:00.672Z,23.05
2019-04-25T14:30:32.617Z,22.93
2019-04-25T14:33:04.280Z,22.90
2019-04-25T14:35:35.055Z,22.85
2019-04-25T14:38:08.967Z,22.75
2019-04-25T14:40:42.171Z,22.76
2019-04-25T14:43:12.314Z,22.70
2019-04-25T14:45:45.098Z,22.69
2019-04-25T14:48:15.471Z,22.70
2019-04-25T14:50:47.579Z,22.65
2019-04-25T14:53:18.344Z,22.63
2019-04-25T14:56:06.932Z,22.59
2019-04-25T14:58:39.543Z,22.55
2019-04-25T15:02:06.963Z,22.52
2019-04-25T15:04:40.737Z,22.44
2019-04-25T15:07:13.266Z,22.40
2019-04-25T15:09:45.701Z,22.32
2019-04-25T15:12:17.363Z,22.23
2019-04-25T15:14:48.213Z,22.24
2019-04-25T15:17:18.943Z,22.12
2019-04-25T15:19:49.961Z,22.02
2019-04-25T15:22:21.715Z,21.95
2019-04-25T15:24:52.576Z,21.94
2019-04-25T15:27:24.100Z,21.88
2019-04-25T15:29:55.666Z,21.83
2019-04-25T15:32:31.215Z,21.73
2019-04-25T15:35:06.210Z,21.65
2019-04-25T15:37:45.277Z,21.58
2019-04-25T15:40:25.256Z,21.40
2019-04-25T15:43:17.071Z,21.35
2019-04-25T15:46:07.192Z,21.36
2019-04-25T15:48:40.871Z,21.12
2019-04-25T15:51:14.351Z,20.96
2019-04-25T15:53:45.000Z,20.86
2019-04-25T15:56:15.658Z,20.87
2019-04-25T15:58:49.501Z,20.81
2019-04-25T16:01:23.114Z,20.72
2019-04-25T16:03:54.266Z,20.68
2019-04-25T16:06:25.549Z,20.63
2019-04-25T16:08:59.280Z,20.64
2019-04-25T16:11:33.458Z,20.64
2019-04-25T16:14:04.910Z,20.50
2019-04-25T16:16:35.957Z,20.63
2019-04-25T16:19:06.624Z,20.36
2019-04-25T16:21:38.931Z,20.20
2019-04-25T16:24:12.849Z,20.18
2019-04-25T16:26:43.661Z,20.13
2019-04-25T16:29:15.907Z,19.96
2019-04-25T16:31:49.421Z,19.98
2019-04-25T16:34:21.650Z,19.85
2019-04-25T16:36:57.208Z,19.73
2019-04-25T16:39:30.935Z,19.72
2019-04-25T16:42:05.973Z,19.57
2019-04-25T16:44:40.162Z,19.40
2019-04-25T16:47:31.205Z,19.36
2019-04-25T16:50:02.005Z,19.40
2019-04-25T16:52:33.842Z,19.18
2019-04-25T16:55:09.273Z,19.07
2019-04-25T16:57:42.135Z,19.29
2019-04-25T17:00:30.890Z,19.28
2019-04-25T17:03:04.657Z,19.28
2019-04-25T17:05:35.832Z,19.31
2019-04-25T17:08:10.118Z,19.19
2019-04-25T17:10:46.348Z,19.19
2019-04-25T17:13:20.225Z,19.04
2019-04-25T17:16:04.441Z,19.15
2019-04-25T17:18:42.353Z,19.14
2019-04-25T17:21:15.722Z,19.00
2019-04-25T17:23:47.964Z,19.06
2019-04-25T17:26:19.494Z,19.08
2019-04-25T17:28:56.272Z,18.95
2019-04-25T17:31:48.532Z,19.09
2019-04-25T17:34:21.540Z,19.01
2019-04-25T17:36:53.998Z,18.96
2019-04-25T17:39:26.678Z,18.87
2019-04-25T17:42:01.393Z,18.75
2019-04-25T17:44:34.190Z,18.51
2019-04-25T17:47:06.582Z,18.35
2019-04-25T17:49:37.449Z,18.35
2019-04-25T17:52:09.516Z,18.13
2019-04-25T17:54:41.037Z,17.98
2019-04-25T17:57:11.825Z,17.82
2019-04-25T17:59:43.397Z,17.56
2019-04-25T18:02:14.320Z,17.40
2019-04-25T18:04:46.627Z,17.30
2019-04-25T18:07:18.820Z,17.30
2019-04-25T18:09:49.530Z,17.19
2019-04-25T18:12:23.605Z,17.06
2019-04-25T18:14:55.974Z,17.08
2019-04-25T18:17:26.673Z,17.32
2019-04-25T18:20:02.020Z,17.28
2019-04-25T18:22:46.288Z,17.42
2019-04-25T18:25:37.353Z,17.59
2019-04-25T18:28:15.510Z,17.24
2019-04-25T18:30:46.930Z,17.10
2019-04-25T18:33:19.287Z,17.12
2019-04-25T18:35:51.720Z,17.12
2019-04-25T18:38:27.061Z,17.08
2019-04-25T18:41:11.639Z,17.00
2019-04-25T18:43:44.866Z,16.97
2019-04-25T18:46:23.632Z,16.88
2019-04-25T18:48:56.900Z,16.95
2019-04-25T18:51:29.486Z,16.79
2019-04-25T18:54:32.590Z,17.35
2019-04-25T18:57:14.329Z,17.28
2019-04-25T19:00:00.375Z,17.40
2019-04-25T19:02:43.915Z,17.15
2019-04-25T19:05:34.012Z,16.99
2019-04-25T19:08:09.986Z,17.18
2019-04-25T19:11:00.196Z,17.02
2019-04-25T19:13:38.812Z,17.03
2019-04-25T19:16:28.718Z,16.92
2019-04-25T19:19:00.875Z,17.07
2019-04-25T19:21:49.936Z,17.35
2019-04-25T19:24:40.330Z,17.19
2019-04-25T19:27:23.890Z,16.92
2019-04-25T19:29:53.697Z,16.90
2019-04-25T19:32:26.774Z,16.69
2019-04-25T19:35:02.742Z,16.54
2019-04-25T19:37:36.050Z,16.47
2019-04-25T19:40:19.364Z,16.41
2019-04-25T19:43:18.176Z,16.25
2019-04-25T19:45:53.441Z,16.28
2019-04-25T19:48:44.836Z,16.33
2019-04-25T19:51:18.183Z,16.41
2019-04-25T19:53:51.965Z,16.33
2019-04-25T19:56:25.785Z,16.39
2019-04-25T19:59:17.534Z,16.55
2019-04-25T20:01:54.823Z,16.27
2019-04-25T20:04:35.578Z,16.17
2019-04-25T20:07:17.510Z,16.16
2019-04-25T20:10:09.326Z,16.27
2019-04-25T20:12:51.314Z,16.36
2019-04-25T20:15:19.729Z,16.58
2019-04-25T20:17:54.281Z,16.86
2019-04-25T20:20:31.996Z,16.91
2019-04-25T20:23:22.569Z,16.92
2019-04-25T20:26:03.541Z,17.02
2019-04-25T20:28:42.386Z,17.08
2019-04-25T20:31:14.979Z,17.04
2019-04-25T20:34:03.178Z,16.99
2019-04-25T20:36:27.269Z,17.05
2019-04-25T20:39:02.909Z,16.99
2019-04-25T20:41:37.679Z,16.85
2019-04-25T20:44:09.964Z,16.82
2019-04-25T20:46:50.531Z,16.67
2019-04-25T20:49:35.207Z,16.81
2019-04-25T20:52:12.734Z,16.90
2019-04-25T20:54:47.505Z,16.91
2019-04-25T20:57:18.140Z,17.03
2019-04-25T20:59:52.179Z,17.05
2019-04-25T21:02:23.873Z,17.08
2019-04-25T21:04:54.511Z,17.09
2019-04-25T21:07:26.287Z,16.96
2019-04-25T21:10:01.135Z,17.00
2019-04-25T21:12:35.139Z,16.88
2019-04-25T21:15:25.671Z,16.77
2019-04-25T21:17:58.872Z,16.94
2019-04-25T21:20:30.958Z,16.92
2019-04-25T21:23:05.760Z,16.74
2019-04-25T21:25:36.536Z,16.70
2019-04-25T21:28:09.466Z,16.56
2019-04-25T21:30:42.935Z,16.47
2019-04-25T21:33:14.018Z,16.49
2019-04-25T21:35:44.889Z,16.60
2019-04-25T21:38:18.241Z,16.80
2019-04-25T21:40:55.735Z,16.67
2019-04-25T21:43:28.306Z,16.65
2019-04-25T21:46:00.616Z,16.57
2019-04-25T21:48:34.929Z,16.52
2019-04-25T21:51:25.432Z,16.60
2019-04-25T21:53:57.659Z,16.67
2019-04-25T21:56:32.276Z,16.57
2019-04-25T21:59:04.139Z,16.67
2019-04-25T22:01:40.621Z,16.56
2019-04-25T22:04:19.330Z,16.66
2019-04-25T22:06:52.578Z,16.63
2019-04-25T22:09:28.732Z,16.55
2019-04-25T22:12:01.152Z,16.66
2019-04-25T22:14:32.974Z,16.67
2019-04-25T22:17:06.923Z,16.65
2019-04-25T22:19:42.442Z,16.66
2019-04-25T22:22:14.411Z,16.69
2019-04-25T22:24:45.108Z,16.74
2019-04-25T22:27:18.949Z,16.79
2019-04-25T22:29:51.691Z,16.70
2019-04-25T22:32:25.414Z,16.72
2019-04-25T22:35:13.209Z,16.73
2019-04-25T22:37:45.708Z,16.73
2019-04-25T22:40:16.357Z,16.61
2019-04-25T22:42:48.680Z,16.50
2019-04-25T22:45:21.870Z,16.59
2019-04-25T22:47:53.838Z,16.63
2019-04-25T22:50:24.811Z,16.60
2019-04-25T22:52:55.568Z,16.58
2019-04-25T22:55:29.053Z,16.58
2019-04-25T22:57:59.775Z,16.61
2019-04-25T23:00:35.244Z,16.58
2019-04-25T23:03:07.717Z,16.60
2019-04-25T23:05:43.200Z,16.59
2019-04-25T23:08:14.297Z,16.54
2019-04-25T23:10:45.502Z,16.39
2019-04-25T23:13:16.151Z,16.54
2019-04-25T23:15:46.801Z,16.45
2019-04-25T23:18:18.252Z,16.58
2019-04-25T23:20:48.987Z,16.43
2019-04-25T23:23:20.147Z,16.41
2019-04-25T23:25:55.631Z,16.36
2019-04-25T23:28:38.814Z,16.39
2019-04-25T23:31:12.564Z,16.32
2019-04-25T23:33:46.330Z,16.20
2019-04-25T23:36:20.422Z,16.15
2019-04-25T23:38:54.369Z,16.23
2019-04-25T23:41:28.278Z,16.25
2019-04-25T23:44:00.641Z,16.29
2019-04-25T23:46:33.891Z,16.18
2019-04-25T23:49:07.792Z,16.10
2019-04-25T23:51:43.908Z,16.04
2019-04-25T23:54:15.948Z,15.96
2019-04-25T23:56:47.617Z,15.97
2019-04-25T23:59:21.473Z,15.96
